createdAt,value
2023-04-15T00:04:31.542Z,33.22
2023-04-15T00:09:33.131Z,33.20
2023-04-15T00:14:35.700Z,33.07
2023-04-15T00:19:37.402Z,33.25
2023-04-15T00:24:39.167Z,33.12
2023-04-15T00:29:40.537Z,33.25
2023-04-15T00:34:42.502Z,33.20
2023-04-15T00:39:44.060Z,33.13
2023-04-15T00:44:45.457Z,33.12
2023-04-15T00:49:47.054Z,33.41
2023-04-15T00:54:48.633Z,33.07
2023-04-15T00:59:50.061Z,32.99
2023-04-15T01:04:51.932Z,33.07
2023-04-15T01:09:53.418Z,33.06
2023-04-15T01:14:55.274Z,33.02
2023-04-15T01:19:57.833Z,32.97
2023-04-15T01:25:06.159Z,33.12
2023-04-15T01:30:08.435Z,33.04
2023-04-15T01:35:09.897Z,33.03
2023-04-15T01:40:11.416Z,33.07
2023-04-15T01:45:13.959Z,33.06
2023-04-15T01:50:15.390Z,33.19
2023-04-15T01:55:17.170Z,33.17
2023-04-15T02:00:18.575Z,33.22
2023-04-15T02:05:19.952Z,33.07
2023-04-15T02:10:21.659Z,33.20
2023-04-15T02:15:23.045Z,33.27
2023-04-15T02:20:24.473Z,33.07
2023-04-15T02:25:25.848Z,33.25
2023-04-15T02:30:27.292Z,33.23
2023-04-15T02:35:28.693Z,33.35
2023-04-15T02:40:30.105Z,33.30
2023-04-15T02:45:31.566Z,33.31
2023-04-15T02:50:33.032Z,33.08
2023-04-15T02:55:34.532Z,33.22
2023-04-15T03:00:36.137Z,33.33
2023-04-15T03:05:39.062Z,33.15
2023-04-15T03:10:40.460Z,33.43
2023-04-15T03:15:41.941Z,33.37
2023-04-15T03:20:43.394Z,33.29
2023-04-15T03:25:45.083Z,33.26
2023-04-15T03:30:46.609Z,33.40
2023-04-15T03:35:47.981Z,33.45
2023-04-15T03:40:49.395Z,33.24
2023-04-15T03:45:50.781Z,33.42
2023-04-15T03:50:52.154Z,33.49
2023-04-15T03:55:53.525Z,33.25
2023-04-15T04:00:54.924Z,33.36
2023-04-15T04:05:56.546Z,33.35
2023-04-15T04:10:58.066Z,33.35
2023-04-15T04:15:59.489Z,33.37
2023-04-15T04:21:00.999Z,33.47
2023-04-15T04:26:02.509Z,33.28
2023-04-15T04:31:03.931Z,33.59
2023-04-15T04:36:05.527Z,33.44
2023-04-15T04:41:06.948Z,33.56
2023-04-15T04:46:08.344Z,33.69
2023-04-15T04:51:09.758Z,33.70
2023-04-15T04:56:11.154Z,33.62
2023-04-15T05:01:12.961Z,33.64
2023-04-15T05:06:14.411Z,33.66
2023-04-15T05:11:16.030Z,33.82
2023-04-15T05:16:17.620Z,33.73
2023-04-15T05:21:19.275Z,33.74
2023-04-15T05:26:22.010Z,33.94
2023-04-15T05:31:23.436Z,33.73
2023-04-15T05:36:24.846Z,33.84
2023-04-15T05:41:26.334Z,33.73
2023-04-15T05:46:27.806Z,33.80
2023-04-15T05:51:29.282Z,33.79
2023-04-15T05:56:31.574Z,33.65
2023-04-15T06:01:33.612Z,33.76
2023-04-15T06:06:34.979Z,33.74
2023-04-15T06:11:36.587Z,33.81
2023-04-15T06:16:38.164Z,33.63
2023-04-15T06:21:39.601Z,33.52
2023-04-15T06:26:41.453Z,33.69
2023-04-15T06:31:42.867Z,33.62
2023-04-15T06:36:44.312Z,33.66
2023-04-15T06:41:45.986Z,33.78
2023-04-15T06:46:47.370Z,33.86
2023-04-15T06:51:48.782Z,33.61
2023-04-15T06:56:51.404Z,33.67
2023-04-15T07:01:52.861Z,33.68
2023-04-15T07:06:55.456Z,33.56
2023-04-15T07:11:56.849Z,33.73
2023-04-15T07:16:58.291Z,33.62
2023-04-15T07:21:59.768Z,33.55
2023-04-15T07:27:01.717Z,33.62
2023-04-15T07:32:03.285Z,33.75
2023-04-15T07:37:04.678Z,33.67
2023-04-15T07:42:06.097Z,33.55
2023-04-15T07:47:07.486Z,33.70
2023-04-15T07:52:08.880Z,33.66
2023-04-15T07:57:10.516Z,33.61
2023-04-15T08:02:12.067Z,33.80
2023-04-15T08:07:13.512Z,33.95
2023-04-15T08:12:14.972Z,33.64
2023-04-15T08:17:16.421Z,33.89
2023-04-15T08:22:18.218Z,33.79
2023-04-15T08:27:20.686Z,33.80
2023-04-15T08:32:23.134Z,33.84
2023-04-15T08:37:24.542Z,33.75
2023-04-15T08:42:32.054Z,33.91
2023-04-15T08:47:33.655Z,33.89
2023-04-15T08:52:35.054Z,34.08
2023-04-15T08:57:36.445Z,33.98
2023-04-15T09:02:38.134Z,33.85
2023-04-15T09:07:39.600Z,33.96
2023-04-15T09:12:41.362Z,33.68
2023-04-15T09:17:43.943Z,34.06
2023-04-15T09:22:46.189Z,34.45
2023-04-15T09:27:50.267Z,34.22
2023-04-15T09:32:52.720Z,34.02
2023-04-15T09:38:01.699Z,33.81
2023-04-15T09:43:04.953Z,33.62
2023-04-15T09:48:22.736Z,33.66
2023-04-15T09:53:24.672Z,33.55
2023-04-15T09:58:30.133Z,33.21
2023-04-15T10:03:33.996Z,32.95
2023-04-15T10:08:35.466Z,33.15
2023-04-15T10:13:37.220Z,33.03
2023-04-15T10:18:40.878Z,32.75
2023-04-15T10:23:42.252Z,32.64
2023-04-15T10:28:44.429Z,33.03
2023-04-15T10:33:45.962Z,32.67
2023-04-15T10:38:47.394Z,32.60
2023-04-15T10:43:53.333Z,32.51
2023-04-15T10:48:54.894Z,32.66
2023-04-15T10:53:57.585Z,32.45
2023-04-15T10:59:00.568Z,32.71
2023-04-15T11:04:02.158Z,32.54
2023-04-15T11:09:09.441Z,32.30
2023-04-15T11:14:15.232Z,32.53
2023-04-15T11:19:16.555Z,32.33
2023-04-15T11:24:27.133Z,32.18
2023-04-15T11:29:34.802Z,32.34
2023-04-15T11:34:36.588Z,32.17
2023-04-15T11:39:37.974Z,32.21
2023-04-15T11:44:39.412Z,32.43
2023-04-15T11:49:41.466Z,32.21
2023-04-15T11:54:42.864Z,32.24
2023-04-15T11:59:46.010Z,31.91
2023-04-15T12:04:47.716Z,32.00
2023-04-15T12:09:55.241Z,31.83
2023-04-15T12:14:56.892Z,31.76
2023-04-15T12:19:58.311Z,31.77
2023-04-15T12:25:02.559Z,31.67
2023-04-15T12:30:07.818Z,31.80
2023-04-15T12:35:09.266Z,31.92
2023-04-15T12:40:10.903Z,31.66
2023-04-15T12:45:12.358Z,31.73
2023-04-15T12:50:13.740Z,31.79
2023-04-15T12:55:15.114Z,31.69
2023-04-15T13:00:16.683Z,31.50
2023-04-15T13:05:18.056Z,31.42
2023-04-15T13:10:19.429Z,31.35
2023-04-15T13:15:22.506Z,31.45
2023-04-15T13:20:24.076Z,31.34
2023-04-15T13:25:26.036Z,31.01
2023-04-15T13:30:27.936Z,31.36
2023-04-15T13:35:29.583Z,31.52
2023-04-15T13:40:30.959Z,31.49
2023-04-15T13:45:32.392Z,31.56
2023-04-15T13:50:33.794Z,31.86
2023-04-15T13:55:35.611Z,31.88
2023-04-15T14:00:37.012Z,31.76
2023-04-15T14:05:38.389Z,31.94
2023-04-15T14:10:39.854Z,31.68
2023-04-15T14:15:41.471Z,31.51
2023-04-15T14:20:42.862Z,31.69
2023-04-15T14:25:46.729Z,31.56
2023-04-15T14:30:49.523Z,31.40
2023-04-15T14:35:51.123Z,31.15
2023-04-15T14:40:52.506Z,31.54
2023-04-15T14:45:53.932Z,31.49
2023-04-15T14:50:55.409Z,31.39
2023-04-15T14:55:56.803Z,31.45
2023-04-15T15:00:58.248Z,31.38
2023-04-15T15:05:59.620Z,31.08
2023-04-15T15:11:01.055Z,31.43
2023-04-15T15:16:02.490Z,31.42
2023-04-15T15:21:03.950Z,31.13
2023-04-15T15:26:05.394Z,31.32
2023-04-15T15:31:06.849Z,31.35
2023-04-15T15:36:08.227Z,31.19
2023-04-15T15:41:09.610Z,31.22
2023-04-15T15:46:11.152Z,31.24
2023-04-15T15:51:12.647Z,31.19
2023-04-15T15:56:14.037Z,31.13
2023-04-15T16:01:15.681Z,31.32
2023-04-15T16:06:17.128Z,31.24
2023-04-15T16:11:18.513Z,31.32
2023-04-15T16:16:19.996Z,31.46
2023-04-15T16:21:21.494Z,31.37
2023-04-15T16:26:23.152Z,31.31
2023-04-15T16:31:24.588Z,31.33
2023-04-15T16:36:26.395Z,31.36
2023-04-15T16:41:28.314Z,31.31
2023-04-15T16:46:29.834Z,31.53
2023-04-15T16:51:31.894Z,31.48
2023-04-15T16:56:33.280Z,31.38
2023-04-15T17:01:34.680Z,31.32
2023-04-15T17:06:36.207Z,31.34
2023-04-15T17:11:40.273Z,31.29
2023-04-15T17:16:43.021Z,31.16
2023-04-15T17:21:44.402Z,31.32
2023-04-15T17:26:46.932Z,31.22
2023-04-15T17:31:48.304Z,31.20
2023-04-15T17:36:51.220Z,31.30
2023-04-15T17:41:52.602Z,31.51
2023-04-15T17:46:54.059Z,31.74
2023-04-15T17:51:55.535Z,31.56
2023-04-15T17:56:57.807Z,32.02
2023-04-15T18:01:59.303Z,31.90
2023-04-15T18:07:01.206Z,32.02
2023-04-15T18:12:04.328Z,32.22
2023-04-15T18:17:05.727Z,32.35
2023-04-15T18:22:07.126Z,32.56
2023-04-15T18:27:08.503Z,32.58
2023-04-15T18:32:10.022Z,32.78
2023-04-15T18:37:11.392Z,32.82
2023-04-15T18:42:12.793Z,32.87
2023-04-15T18:47:14.775Z,33.05
2023-04-15T18:52:16.184Z,33.28
2023-04-15T18:57:23.291Z,33.25
2023-04-15T19:02:32.878Z,33.16
2023-04-15T19:07:34.965Z,33.46
2023-04-15T19:12:36.878Z,33.55
2023-04-15T19:17:38.450Z,33.72
2023-04-15T19:22:39.934Z,33.59
2023-04-15T19:27:41.303Z,33.79
2023-04-15T19:32:42.803Z,33.76
2023-04-15T19:37:44.286Z,33.81
2023-04-15T19:42:45.659Z,33.75
2023-04-15T19:47:47.138Z,33.99
2023-04-15T19:52:48.518Z,33.77
2023-04-15T19:57:49.907Z,33.92
2023-04-15T20:02:51.465Z,33.92
2023-04-15T20:07:53.663Z,33.88
2023-04-15T20:12:55.266Z,33.90
2023-04-15T20:17:56.703Z,33.93
2023-04-15T20:22:58.217Z,33.96
2023-04-15T20:28:00.944Z,33.96
2023-04-15T20:33:03.146Z,33.97
2023-04-15T20:38:04.579Z,33.76
2023-04-15T20:43:05.948Z,33.92
2023-04-15T20:48:07.378Z,34.13
2023-04-15T20:53:08.782Z,34.23
2023-04-15T20:58:11.017Z,34.18
2023-04-15T21:03:12.502Z,34.26
2023-04-15T21:08:13.993Z,34.40
2023-04-15T21:13:17.527Z,34.31
2023-04-15T21:18:19.075Z,34.39
2023-04-15T21:23:20.563Z,34.24
2023-04-15T21:28:22.321Z,34.46
2023-04-15T21:33:23.989Z,34.39
2023-04-15T21:38:25.408Z,34.38
2023-04-15T21:43:26.894Z,34.27
2023-04-15T21:48:28.367Z,34.36
2023-04-15T21:53:29.789Z,34.10
2023-04-15T21:58:31.360Z,34.21
2023-04-15T22:03:33.912Z,34.24
2023-04-15T22:08:41.643Z,34.22
2023-04-15T22:13:54.336Z,34.31
2023-04-15T22:18:55.851Z,34.05
2023-04-15T22:24:32.953Z,33.90
2023-04-15T22:29:18.746Z,34.16
2023-04-15T22:34:21.393Z,33.99
2023-04-15T22:39:22.771Z,33.88
2023-04-15T22:44:24.191Z,34.10
2023-04-15T22:49:26.287Z,33.89
2023-04-15T22:54:27.651Z,33.75
2023-04-15T22:59:29.044Z,33.70
2023-04-15T23:04:30.629Z,33.90
2023-04-15T23:09:32.202Z,33.86
2023-04-15T23:14:33.631Z,33.79
2023-04-15T23:19:35.029Z,33.76
2023-04-15T23:24:36.471Z,33.81
2023-04-15T23:29:37.896Z,33.73
2023-04-15T23:34:39.280Z,33.98
2023-04-15T23:39:40.864Z,33.79
2023-04-15T23:44:42.236Z,33.69
2023-04-15T23:49:43.915Z,33.82
2023-04-15T23:54:45.295Z,33.85
2023-04-15T23:59:46.743Z,33.72
